| time (UTC) | temp C | wind direction | speed KPH | gust KPH | rain 1hr cm | rain 24hr cm | rain mn cm | humidity % | barometer mb |
| 20260507163245 | 16 | 315 | 9.7 | 17.7 | 0.00 | 0.03 | 0.03 | 51 | 1013.4 |
| 20260507161945 | 16 | 315 | 9.7 | 17.7 | 0.00 | 0.03 | 0.03 | 51 | 1013.4 |
| 20260507160605 | 16 | 315 | 9.7 | 17.7 | 0.00 | 0.03 | 0.03 | 51 | 1013.4 |
| 20260507155152 | 16 | 315 | 9.7 | 17.7 | 0.00 | 0.03 | 0.03 | 51 | 1013.4 |
| 20260507153907 | 16 | 315 | 9.7 | 17.7 | 0.00 | 0.03 | 0.03 | 51 | 1013.4 |
| 20260507152455 | 17 | 270 | 4.8 | 17.7 | 0.00 | 0.03 | 0.03 | 52 | 1013.3 |
| 20260507151110 | 17 | 270 | 4.8 | 17.7 | 0.00 | 0.03 | 0.03 | 52 | 1013.3 |
| 20260507145657 | 16 | 0 | 11.3 | 25.7 | 0.00 | 0.03 | 0.03 | 58 | 1013.5 |
| 20260507144410 | 16 | 0 | 11.3 | 25.7 | 0.00 | 0.03 | 0.03 | 58 | 1013.5 |
| 20260507142945 | 16 | 270 | 11.3 | 25.7 | 0.00 | 0.03 | 0.03 | 51 | 1013.6 |
| 20260507141535 | 16 | 270 | 11.3 | 25.7 | 0.00 | 0.03 | 0.03 | 51 | 1013.6 |
| 20260507140224 | 16 | 270 | 16.1 | 25.7 | 0.00 | 0.03 | 0.03 | 57 | 1013.7 |
| 20260507134857 | 16 | 270 | 16.1 | 25.7 | 0.00 | 0.03 | 0.03 | 57 | 1013.7 |
| 20260507133540 | 14 | 270 | 12.9 | 24.1 | 0.00 | 0.03 | 0.03 | 64 | 1014.2 |
| 20260507132307 | 14 | 270 | 12.9 | 24.1 | 0.00 | 0.03 | 0.03 | 64 | 1014.2 |
| 20260507130945 | 14 | 270 | 12.9 | 24.1 | 0.00 | 0.03 | 0.03 | 64 | 1014.2 |
| 20260507125705 | 14 | 270 | 12.9 | 24.1 | 0.00 | 0.03 | 0.03 | 64 | 1014.2 |
| 20260507124330 | 14 | 270 | 12.9 | 24.1 | 0.00 | 0.03 | 0.03 | 64 | 1014.2 |
| 20260507123004 | 14 | 270 | 11.3 | 20.9 | 0.00 | 0.03 | 0.03 | 66 | 1014.4 |
| 20260507121746 | 14 | 270 | 11.3 | 20.9 | 0.00 | 0.03 | 0.03 | 66 | 1014.4 |
| 20260507120335 | 13 | 270 | 12.9 | 24.1 | 0.00 | 0.03 | 0.03 | 68 | 1014.7 |
| 20260507115015 | 13 | 270 | 12.9 | 24.1 | 0.00 | 0.03 | 0.03 | 68 | 1014.7 |
| 20260507113630 | 13 | 270 | 12.9 | 24.1 | 0.00 | 0.03 | 0.03 | 68 | 1014.7 |
| 20260507112144 | 12 | 270 | 11.3 | 24.1 | 0.00 | 0.03 | 0.03 | 71 | 1014.9 |
| 20260507110835 | 12 | 270 | 11.3 | 24.1 | 0.00 | 0.03 | 0.03 | 71 | 1014.9 |
| 20260507105519 | 12 | 270 | 11.3 | 22.5 | 0.00 | 0.03 | 0.03 | 75 | 1014.8 |
| 20260507104305 | 12 | 270 | 11.3 | 22.5 | 0.00 | 0.03 | 0.03 | 75 | 1014.8 |
| 20260507103025 | 12 | 270 | 11.3 | 22.5 | 0.00 | 0.03 | 0.03 | 75 | 1014.8 |
| 20260507101715 | 12 | 270 | 11.3 | 22.5 | 0.00 | 0.03 | 0.03 | 75 | 1014.8 |
| 20260507100335 | 11 | 270 | 11.3 | 24.1 | 0.00 | 0.03 | 0.03 | 82 | 1015.0 |
| 20260507094928 | 11 | 270 | 11.3 | 24.1 | 0.00 | 0.03 | 0.03 | 82 | 1015.0 |
| 20260507093505 | 11 | 270 | 11.3 | 24.1 | 0.00 | 0.03 | 0.03 | 81 | 1014.9 |
| 20260507092200 | 11 | 270 | 11.3 | 24.1 | 0.00 | 0.03 | 0.03 | 81 | 1014.9 |
| 20260507090910 | 11 | 270 | 11.3 | 24.1 | 0.00 | 0.03 | 0.03 | 81 | 1014.9 |
| 20260507085610 | 10 | 270 | 9.7 | 25.7 | 0.03 | 0.03 | 0.03 | 86 | 1014.9 |
| 20260507084345 | 10 | 270 | 9.7 | 25.7 | 0.03 | 0.03 | 0.03 | 86 | 1014.9 |
| 20260507083034 | 10 | 270 | 14.5 | 25.7 | 0.00 | 0.03 | 0.10 | 86 | 1014.4 |
| 20260507081657 | 10 | 270 | 14.5 | 25.7 | 0.00 | 0.03 | 0.10 | 86 | 1014.4 |
| 20260507080408 | 10 | 270 | 14.5 | 25.7 | 0.00 | 0.03 | 0.10 | 86 | 1014.4 |
| 20260507075115 | 10 | 270 | 14.5 | 25.7 | 0.00 | 0.03 | 0.10 | 86 | 1014.4 |
| 20260507073745 | 10 | 270 | 14.5 | 25.7 | 0.00 | 0.03 | 0.10 | 86 | 1014.4 |
| 20260507072309 | 10 | 270 | 14.5 | 25.7 | 0.00 | 0.03 | 0.10 | 86 | 1014.4 |
| 20260507071005 | 10 | 270 | 14.5 | 25.7 | 0.00 | 0.03 | 0.10 | 86 | 1014.4 |
| 20260507065637 | 9 | 225 | 12.9 | 20.9 | 0.03 | 0.03 | 0.10 | 88 | 1014.3 |
| 20260507064305 | 9 | 225 | 12.9 | 20.9 | 0.03 | 0.03 | 0.10 | 88 | 1014.3 |
| 20260507062937 | 8 | 270 | 8.0 | 14.5 | 0.03 | 0.08 | 0.08 | 91 | 1014.1 |
| 20260507061554 | 8 | 270 | 8.0 | 14.5 | 0.03 | 0.08 | 0.08 | 91 | 1014.1 |
| 20260507060220 | 8 | 225 | 9.7 | 22.5 | 0.05 | 0.05 | 0.05 | 89 | 1013.7 |
| 20260507054957 | 8 | 225 | 9.7 | 22.5 | 0.05 | 0.05 | 0.05 | 89 | 1013.7 |
| 20260507053615 | 8 | 225 | 9.7 | 22.5 | 0.05 | 0.05 | 0.05 | 89 | 1013.7 |
| 20260507052235 | 9 | 225 | 11.3 | 22.5 | 0.00 | 0.00 | 0.00 | 84 | 1013.3 |
| 20260507050825 | 9 | 225 | 11.3 | 22.5 | 0.00 | 0.00 | 0.00 | 84 | 1013.3 |
| 20260507045435 | 9 | 225 | 11.3 | 22.5 | 0.00 | 0.00 | 0.00 | 84 | 1013.2 |
| 20260507044105 | 9 | 225 | 11.3 | 22.5 | 0.00 | 0.00 | 0.00 | 84 | 1013.2 |
| 20260507042750 | 8 | 225 | 9.7 | 16.1 | 0.00 | 0.00 | 0.00 | 86 | 1013.2 |
| 20260507041420 | 8 | 225 | 9.7 | 16.1 | 0.00 | 0.00 | 0.00 | 86 | 1013.2 |
| 20260507040052 | 8 | 225 | 3.2 | 14.5 | 0.00 | 0.00 | 0.00 | 88 | 1013.0 |
| 20260507034800 | 8 | 225 | 3.2 | 14.5 | 0.00 | 0.00 | 0.00 | 88 | 1013.0 |
| 20260507033410 | 8 | 225 | 3.2 | 6.4 | 0.00 | 0.00 | 0.00 | 90 | 1013.0 |
| 20260507032030 | 8 | 225 | 3.2 | 6.4 | 0.00 | 0.00 | 0.00 | 90 | 1013.0 |
| 20260507030635 | 8 | 225 | 3.2 | 6.4 | 0.00 | 0.00 | 0.00 | 90 | 1013.0 |
| 20260507025255 | 8 | 180 | 3.2 | 12.9 | 0.00 | 0.00 | 0.00 | 91 | 1012.8 |
| 20260507024015 | 8 | 180 | 3.2 | 12.9 | 0.00 | 0.00 | 0.00 | 91 | 1012.8 |
| 20260507022650 | 7 | 225 | 3.2 | 8.0 | 0.00 | 0.00 | 0.00 | 92 | 1012.8 |
| 20260507021350 | 7 | 225 | 3.2 | 8.0 | 0.00 | 0.00 | 0.00 | 92 | 1012.8 |
| 20260507020010 | 7 | 225 | 1.6 | 6.4 | 0.00 | 0.00 | 0.00 | 95 | 1012.8 |
| 20260507014730 | 7 | 225 | 1.6 | 6.4 | 0.00 | 0.00 | 0.00 | 95 | 1012.8 |
| 20260507013425 | 7 | 90 | 1.6 | 6.4 | 0.00 | 0.00 | 0.00 | 95 | 1012.7 |
| 20260507012050 | 7 | 90 | 1.6 | 6.4 | 0.00 | 0.00 | 0.00 | 95 | 1012.7 |
| 20260507010648 | 7 | 90 | 1.6 | 6.4 | 0.00 | 0.00 | 0.00 | 95 | 1012.7 |
| 20260507005336 | 6 | 90 | 3.2 | 6.4 | 0.00 | 0.00 | 0.00 | 97 | 1012.5 |
| 20260507004025 | 6 | 90 | 3.2 | 6.4 | 0.00 | 0.00 | 0.00 | 97 | 1012.5 |
| 20260507002755 | 6 | 90 | 3.2 | 6.4 | 0.00 | 0.00 | 0.00 | 97 | 1012.5 |
| 20260507001420 | 6 | 90 | 3.2 | 6.4 | 0.00 | 0.00 | 0.00 | 97 | 1012.5 |
| 20260507000040 | 7 | 315 | 3.2 | 6.4 | 0.00 | 0.00 | 0.00 | 94 | 1012.3 |
| 20260506234650 | 7 | 315 | 3.2 | 6.4 | 0.00 | 0.00 | 0.00 | 94 | 1012.3 |
| 20260506233425 | 7 | 315 | 3.2 | 6.4 | 0.00 | 0.00 | 0.00 | 94 | 1012.3 |
| 20260506232135 | 7 | 315 | 3.2 | 6.4 | 0.00 | 0.00 | 0.00 | 94 | 1012.3 |
| 20260506230820 | 7 | 315 | 3.2 | 6.4 | 0.00 | 0.00 | 0.00 | 94 | 1012.3 |
| 20260506225455 | 9 | 225 | 4.8 | 20.9 | 0.00 | 0.69 | 0.69 | 86 | 1011.6 |
| 20260506224200 | 9 | 225 | 4.8 | 20.9 | 0.00 | 0.69 | 0.69 | 86 | 1011.6 |
| 20260506222750 | 9 | 225 | 4.8 | 20.9 | 0.00 | 0.69 | 0.69 | 86 | 1011.6 |
| 20260506221400 | 9 | 225 | 4.8 | 20.9 | 0.00 | 0.69 | 0.69 | 86 | 1011.6 |
| 20260506220145 | 9 | 225 | 4.8 | 20.9 | 0.00 | 0.69 | 0.69 | 86 | 1011.6 |
| 20260506214840 | 9 | 225 | 4.8 | 20.9 | 0.00 | 0.69 | 0.69 | 86 | 1011.6 |
| 20260506213530 | 10 | 225 | 14.5 | 22.5 | 0.00 | 0.69 | 0.69 | 81 | 1011.2 |
| 20260506212130 | 10 | 225 | 14.5 | 22.5 | 0.00 | 0.69 | 0.69 | 81 | 1011.2 |
| 20260506210835 | 10 | 225 | 14.5 | 22.5 | 0.00 | 0.69 | 0.69 | 81 | 1011.2 |
| 20260506205430 | 10 | 225 | 14.5 | 22.5 | 0.00 | 0.69 | 0.69 | 81 | 1011.2 |
| 20260506204040 | 10 | 225 | 14.5 | 22.5 | 0.00 | 0.69 | 0.69 | 81 | 1011.2 |
| 20260506202720 | 10 | 225 | 11.3 | 17.7 | 0.00 | 0.69 | 0.69 | 82 | 1010.8 |
| 20260506201420 | 10 | 225 | 11.3 | 17.7 | 0.00 | 0.69 | 0.69 | 82 | 1010.8 |
| 20260506200140 | 10 | 270 | 6.4 | 29.0 | 0.00 | 0.69 | 0.69 | 83 | 1010.5 |
| 20260506194709 | 10 | 270 | 6.4 | 29.0 | 0.00 | 0.69 | 0.69 | 83 | 1010.5 |
| 20260506193325 | 10 | 225 | 14.5 | 29.0 | 0.00 | 0.69 | 0.69 | 81 | 1010.2 |
| 20260506191939 | 10 | 225 | 14.5 | 29.0 | 0.00 | 0.69 | 0.69 | 81 | 1010.2 |
| 20260506190705 | 10 | 225 | 14.5 | 29.0 | 0.00 | 0.69 | 0.69 | 81 | 1010.2 |
| 20260506185224 | 11 | 225 | 14.5 | 27.4 | 0.00 | 0.69 | 0.69 | 80 | 1009.6 |
| 20260506183840 | 11 | 225 | 14.5 | 27.4 | 0.00 | 0.69 | 0.69 | 80 | 1009.6 |
| 20260506182504 | 11 | 225 | 14.5 | 27.4 | 0.00 | 0.69 | 0.69 | 80 | 1009.6 |
| 20260506181122 | 11 | 225 | 14.5 | 27.4 | 0.00 | 0.69 | 0.69 | 80 | 1009.6 |
| 20260506175824 | 11 | 270 | 16.1 | 30.6 | 0.00 | 0.69 | 0.69 | 81 | 1009.2 |
| 20260506174442 | 11 | 270 | 16.1 | 30.6 | 0.00 | 0.69 | 0.69 | 81 | 1009.2 |
| 20260506173135 | 11 | 270 | 17.7 | 30.6 | 0.00 | 0.69 | 0.69 | 81 | 1008.9 |
| 20260506171805 | 11 | 270 | 17.7 | 30.6 | 0.00 | 0.69 | 0.69 | 81 | 1008.9 |
| 20260506170444 | 11 | 270 | 17.7 | 30.6 | 0.00 | 0.69 | 0.69 | 81 | 1008.9 |
| 20260506165110 | 11 | 270 | 17.7 | 30.6 | 0.00 | 0.69 | 0.69 | 81 | 1008.9 |